createdAt,value
2019-05-25T00:00:35.219Z,14.89
2019-05-25T00:01:34.616Z,14.88
2019-05-25T00:02:36.190Z,14.88
2019-05-25T00:03:36.561Z,14.87
2019-05-25T00:04:36.897Z,14.87
2019-05-25T00:05:37.485Z,14.86
2019-05-25T00:06:37.935Z,14.85
2019-05-25T00:07:38.247Z,14.83
2019-05-25T00:08:38.764Z,14.81
2019-05-25T00:09:39.149Z,14.80
2019-05-25T00:10:39.464Z,14.78
2019-05-25T00:11:38.837Z,14.76
2019-05-25T00:12:40.186Z,14.74
2019-05-25T00:13:40.509Z,14.73
2019-05-25T00:14:40.788Z,14.71
2019-05-25T00:15:41.093Z,14.70
2019-05-25T00:16:41.413Z,14.68
2019-05-25T00:17:41.792Z,14.68
2019-05-25T00:18:42.041Z,14.67
2019-05-25T00:19:42.342Z,14.66
2019-05-25T00:20:42.606Z,14.66
2019-05-25T00:21:42.914Z,14.66
2019-05-25T00:22:43.321Z,14.65
2019-05-25T00:23:43.644Z,14.65
2019-05-25T00:24:44.113Z,14.65
2019-05-25T00:25:44.437Z,14.64
2019-05-25T00:26:44.720Z,14.63
2019-05-25T00:27:45.365Z,14.63
2019-05-25T00:28:46.148Z,14.63
2019-05-25T00:29:46.482Z,14.62
2019-05-25T00:30:46.861Z,14.62
2019-05-25T00:31:48.184Z,14.61
2019-05-25T00:32:47.465Z,14.60
2019-05-25T00:33:48.086Z,14.59
2019-05-25T00:34:47.356Z,14.58
2019-05-25T00:35:48.035Z,14.57
2019-05-25T00:36:49.378Z,14.56
2019-05-25T00:37:49.642Z,14.55
2019-05-25T00:38:49.938Z,14.54
2019-05-25T00:39:50.216Z,14.53
2019-05-25T00:40:50.610Z,14.51
2019-05-25T00:41:50.956Z,14.50
2019-05-25T00:42:51.259Z,14.49
2019-05-25T00:43:51.573Z,14.48
2019-05-25T00:44:00.091Z,14.36
2019-05-25T00:45:01.435Z,14.36
2019-05-25T00:46:01.836Z,14.36
2019-05-25T00:47:02.411Z,14.35
2019-05-25T00:48:02.753Z,14.35
2019-05-25T00:49:03.058Z,14.34
2019-05-25T00:50:03.355Z,14.34
2019-05-25T00:51:03.759Z,14.33
2019-05-25T00:52:04.123Z,14.33
2019-05-25T00:53:04.558Z,14.32
2019-05-25T00:54:04.840Z,14.32
2019-05-25T00:55:05.539Z,14.31
2019-05-25T00:56:06.035Z,14.29
2019-05-25T00:57:06.254Z,14.28
2019-05-25T00:58:06.544Z,14.27
2019-05-25T00:59:06.769Z,14.26
2019-05-25T01:00:07.128Z,14.25
2019-05-25T01:01:07.462Z,14.24
2019-05-25T01:02:07.712Z,14.22
2019-05-25T01:03:07.962Z,14.21
2019-05-25T01:04:08.203Z,14.21
2019-05-25T01:05:08.485Z,14.20
2019-05-25T01:06:08.682Z,14.20
2019-05-25T01:07:09.122Z,14.20
2019-05-25T01:08:09.449Z,14.19
2019-05-25T01:09:09.767Z,14.19
2019-05-25T01:10:10.303Z,14.18
2019-05-25T01:11:10.643Z,14.17
2019-05-25T01:12:11.031Z,14.16
2019-05-25T01:13:11.326Z,14.16
2019-05-25T01:14:11.597Z,14.15
2019-05-25T01:15:12.008Z,14.14
2019-05-25T01:16:12.321Z,14.13
2019-05-25T01:17:12.641Z,14.12
2019-05-25T01:18:12.922Z,14.11
2019-05-25T01:19:13.398Z,14.09
2019-05-25T01:20:13.729Z,14.08
2019-05-25T01:21:14.101Z,14.07
2019-05-25T01:22:14.413Z,14.06
2019-05-25T01:23:14.690Z,14.05
2019-05-25T01:24:15.409Z,14.03
2019-05-25T01:25:15.767Z,14.02
2019-05-25T01:26:16.118Z,14.00
2019-05-25T01:27:16.513Z,13.98
2019-05-25T01:27:25.042Z,13.73
2019-05-25T01:28:26.279Z,13.73
2019-05-25T01:29:26.714Z,13.73
2019-05-25T01:30:26.936Z,13.73
2019-05-25T01:31:27.264Z,13.73
2019-05-25T01:32:27.638Z,13.72
2019-05-25T01:33:28.037Z,13.71
2019-05-25T01:34:28.416Z,13.71
2019-05-25T01:35:28.795Z,13.70
2019-05-25T01:36:29.072Z,13.69
2019-05-25T01:37:29.293Z,13.68
2019-05-25T01:38:29.638Z,13.67
2019-05-25T01:39:30.044Z,13.66
2019-05-25T01:40:30.348Z,13.64
2019-05-25T01:41:30.678Z,13.63
2019-05-25T01:42:31.037Z,13.61
2019-05-25T01:43:30.497Z,13.60
2019-05-25T01:44:31.887Z,13.58
2019-05-25T01:45:32.207Z,13.56
2019-05-25T01:46:32.774Z,13.55
2019-05-25T01:47:32.040Z,13.54
2019-05-25T01:48:33.392Z,13.53
2019-05-25T01:49:33.848Z,13.51
2019-05-25T01:50:34.828Z,13.50
2019-05-25T01:51:35.483Z,13.48
2019-05-25T01:52:35.739Z,13.46
2019-05-25T01:53:36.092Z,13.44
2019-05-25T01:54:36.532Z,13.41
2019-05-25T01:55:36.889Z,13.39
2019-05-25T01:56:37.340Z,13.36
2019-05-25T01:57:37.813Z,13.34
2019-05-25T01:58:37.055Z,13.32
2019-05-25T01:59:37.981Z,13.29
2019-05-25T02:00:37.988Z,13.27
2019-05-25T02:01:38.097Z,13.26
2019-05-25T02:02:38.823Z,13.24
2019-05-25T02:03:38.828Z,13.22
2019-05-25T02:04:39.856Z,13.21
2019-05-25T02:05:40.580Z,13.19
2019-05-25T02:06:41.305Z,13.17
2019-05-25T02:07:42.075Z,13.15
2019-05-25T02:08:42.954Z,13.13
2019-05-25T02:09:43.782Z,13.10
2019-05-25T02:10:44.708Z,13.09
2019-05-25T02:11:45.224Z,13.07
2019-05-25T02:12:46.153Z,13.05
2019-05-25T02:13:46.469Z,13.03
2019-05-25T02:14:47.250Z,13.01
2019-05-25T02:15:49.141Z,12.99
2019-05-25T02:16:49.044Z,12.97
2019-05-25T02:17:49.051Z,12.95
2019-05-25T02:18:49.681Z,12.93
2019-05-25T02:19:50.392Z,12.92
2019-05-25T02:20:51.118Z,12.90
2019-05-25T02:21:52.243Z,12.89
2019-05-25T02:22:53.077Z,12.87
2019-05-25T02:23:53.716Z,12.85
2019-05-25T02:24:53.703Z,12.84
2019-05-25T02:25:53.813Z,12.82
2019-05-25T02:26:54.252Z,12.80
2019-05-25T02:27:54.131Z,12.79
2019-05-25T02:28:54.342Z,12.77
2019-05-25T02:29:54.450Z,12.74
2019-05-25T02:30:55.390Z,12.73
2019-05-25T02:31:55.384Z,12.71
2019-05-25T02:32:56.126Z,12.69
2019-05-25T02:33:57.138Z,12.68
2019-05-25T02:34:57.246Z,12.66
2019-05-25T02:35:58.176Z,12.65
2019-05-25T02:36:59.103Z,12.63
2019-05-25T02:37:59.726Z,12.62
2019-05-25T02:39:00.549Z,12.60
2019-05-25T02:40:01.384Z,12.58
2019-05-25T02:41:02.262Z,12.56
2019-05-25T02:42:03.336Z,12.54
2019-05-25T02:43:03.236Z,12.51
2019-05-25T02:44:03.960Z,12.49
2019-05-25T02:45:04.889Z,12.47
2019-05-25T02:46:04.896Z,12.45
2019-05-25T02:47:05.821Z,12.43
2019-05-25T02:48:06.647Z,12.41
2019-05-25T02:49:07.577Z,12.40
2019-05-25T02:50:07.586Z,12.38
2019-05-25T02:51:07.690Z,12.36
2019-05-25T02:51:17.010Z,12.10
2019-05-25T02:52:17.633Z,12.10
2019-05-25T02:53:17.645Z,12.10
2019-05-25T02:54:18.460Z,12.10
2019-05-25T02:55:32.853Z,12.11
2019-05-25T02:56:19.190Z,12.10
2019-05-25T02:57:19.915Z,12.10
2019-05-25T02:58:20.637Z,12.10
2019-05-25T02:59:21.477Z,12.09
2019-05-25T03:00:22.245Z,12.09
2019-05-25T03:01:24.239Z,12.09
2019-05-25T03:02:24.242Z,12.09
2019-05-25T03:03:24.457Z,12.08
2019-05-25T03:04:25.178Z,12.08
2019-05-25T03:05:25.903Z,12.09
2019-05-25T03:06:26.727Z,12.09
2019-05-25T03:07:27.860Z,12.08
2019-05-25T03:08:27.766Z,12.08
2019-05-25T03:09:28.077Z,12.08
2019-05-25T03:10:28.088Z,12.08
2019-05-25T03:11:28.911Z,12.08
2019-05-25T03:12:29.120Z,12.07
2019-05-25T03:13:29.946Z,12.07
2019-05-25T03:14:30.158Z,12.07
2019-05-25T03:15:30.062Z,12.07
2019-05-25T03:16:30.787Z,12.06
2019-05-25T03:17:30.999Z,12.07
2019-05-25T03:18:31.718Z,12.07
2019-05-25T03:19:32.559Z,12.07
2019-05-25T03:20:33.241Z,12.07
2019-05-25T03:21:33.988Z,12.08
2019-05-25T03:22:34.820Z,12.08
2019-05-25T03:23:35.640Z,12.08
